sensor_id;sensor_type;location;lat;lon;timestamp;temperature;humidity
72936;DHT22;61085;48.804;9.228;2023-04-23T00:00:08;16.30;93.70
72936;DHT22;61085;48.804;9.228;2023-04-23T00:02:38;16.30;93.70
72936;DHT22;61085;48.804;9.228;2023-04-23T00:05:05;16.30;93.80
72936;DHT22;61085;48.804;9.228;2023-04-23T00:07:32;16.30;93.70
72936;DHT22;61085;48.804;9.228;2023-04-23T00:09:59;16.30;93.40
72936;DHT22;61085;48.804;9.228;2023-04-23T00:12:26;16.30;93.30
72936;DHT22;61085;48.804;9.228;2023-04-23T00:14:52;16.30;93.10
72936;DHT22;61085;48.804;9.228;2023-04-23T00:17:18;16.20;93.10
72936;DHT22;61085;48.804;9.228;2023-04-23T00:19:44;16.30;93.40
72936;DHT22;61085;48.804;9.228;2023-04-23T00:22:10;16.20;93.10
72936;DHT22;61085;48.804;9.228;2023-04-23T00:24:38;16.20;93.40
72936;DHT22;61085;48.804;9.228;2023-04-23T00:27:04;16.10;93.30
72936;DHT22;61085;48.804;9.228;2023-04-23T00:29:30;16.20;93.70
72936;DHT22;61085;48.804;9.228;2023-04-23T00:31:56;16.10;93.90
72936;DHT22;61085;48.804;9.228;2023-04-23T00:34:22;16.20;94.00
72936;DHT22;61085;48.804;9.228;2023-04-23T00:36:47;16.10;94.70
72936;DHT22;61085;48.804;9.228;2023-04-23T00:39:13;16.00;95.30
72936;DHT22;61085;48.804;9.228;2023-04-23T00:41:39;16.00;94.80
72936;DHT22;61085;48.804;9.228;2023-04-23T00:44:06;16.00;95.60
72936;DHT22;61085;48.804;9.228;2023-04-23T00:46:34;16.00;96.00
72936;DHT22;61085;48.804;9.228;2023-04-23T00:49:01;16.00;96.00
72936;DHT22;61085;48.804;9.228;2023-04-23T00:51:27;15.90;96.10
72936;DHT22;61085;48.804;9.228;2023-04-23T00:53:53;16.00;96.70
72936;DHT22;61085;48.804;9.228;2023-04-23T00:56:19;16.10;97.20
72936;DHT22;61085;48.804;9.228;2023-04-23T00:58:46;15.80;97.90
72936;DHT22;61085;48.804;9.228;2023-04-23T01:01:12;15.90;98.90
72936;DHT22;61085;48.804;9.228;2023-04-23T01:03:39;15.80;99.20
72936;DHT22;61085;48.804;9.228;2023-04-23T01:06:08;15.70;99.20
72936;DHT22;61085;48.804;9.228;2023-04-23T01:08:34;15.70;99.90
72936;DHT22;61085;48.804;9.228;2023-04-23T01:11:01;15.60;99.90
72936;DHT22;61085;48.804;9.228;2023-04-23T01:13:27;15.70;99.90
72936;DHT22;61085;48.804;9.228;2023-04-23T01:15:57;15.70;99.90
72936;DHT22;61085;48.804;9.228;2023-04-23T01:18:23;15.70;99.90
72936;DHT22;61085;48.804;9.228;2023-04-23T01:20:49;15.60;99.90
72936;DHT22;61085;48.804;9.228;2023-04-23T01:23:15;15.60;99.90
72936;DHT22;61085;48.804;9.228;2023-04-23T01:25:42;15.50;99.90
72936;DHT22;61085;48.804;9.228;2023-04-23T01:28:08;15.50;99.90
72936;DHT22;61085;48.804;9.228;2023-04-23T01:30:35;15.60;99.90
72936;DHT22;61085;48.804;9.228;2023-04-23T01:33:05;15.70;99.90
72936;DHT22;61085;48.804;9.228;2023-04-23T01:35:31;15.60;99.90
72936;DHT22;61085;48.804;9.228;2023-04-23T01:37:58;15.50;99.90
72936;DHT22;61085;48.804;9.228;2023-04-23T01:40:26;15.50;99.90
72936;DHT22;61085;48.804;9.228;2023-04-23T01:42:52;15.50;99.90
72936;DHT22;61085;48.804;9.228;2023-04-23T01:45:18;15.50;99.90
72936;DHT22;61085;48.804;9.228;2023-04-23T01:47:45;15.50;99.90
72936;DHT22;61085;48.804;9.228;2023-04-23T01:50:11;15.40;99.90
72936;DHT22;61085;48.804;9.228;2023-04-23T01:52:37;15.40;99.90
72936;DHT22;61085;48.804;9.228;2023-04-23T01:55:03;15.50;99.90
72936;DHT22;61085;48.804;9.228;2023-04-23T01:57:28;15.40;99.90
72936;DHT22;61085;48.804;9.228;2023-04-23T02:00:07;15.40;99.90
72936;DHT22;61085;48.804;9.228;2023-04-23T02:02:34;15.40;99.90
72936;DHT22;61085;48.804;9.228;2023-04-23T02:05:00;15.40;99.90
72936;DHT22;61085;48.804;9.228;2023-04-23T02:07:33;15.30;99.90
72936;DHT22;61085;48.804;9.228;2023-04-23T02:09:59;15.40;99.90
72936;DHT22;61085;48.804;9.228;2023-04-23T02:12:25;15.30;99.90
72936;DHT22;61085;48.804;9.228;2023-04-23T02:14:51;15.30;99.90
72936;DHT22;61085;48.804;9.228;2023-04-23T02:17:19;15.30;99.90
72936;DHT22;61085;48.804;9.228;2023-04-23T02:19:47;15.30;99.90
72936;DHT22;61085;48.804;9.228;2023-04-23T02:22:13;15.20;99.90
72936;DHT22;61085;48.804;9.228;2023-04-23T02:24:38;15.20;99.90
72936;DHT22;61085;48.804;9.228;2023-04-23T02:27:06;15.30;99.90
72936;DHT22;61085;48.804;9.228;2023-04-23T02:29:33;15.30;99.90
72936;DHT22;61085;48.804;9.228;2023-04-23T02:31:58;15.30;99.90
72936;DHT22;61085;48.804;9.228;2023-04-23T02:34:24;15.20;99.90
72936;DHT22;61085;48.804;9.228;2023-04-23T02:36:49;15.10;99.90
72936;DHT22;61085;48.804;9.228;2023-04-23T02:39:15;15.20;99.90
72936;DHT22;61085;48.804;9.228;2023-04-23T02:41:41;15.20;99.90
72936;DHT22;61085;48.804;9.228;2023-04-23T02:44:06;15.00;99.90
72936;DHT22;61085;48.804;9.228;2023-04-23T02:46:32;15.00;99.90
72936;DHT22;61085;48.804;9.228;2023-04-23T02:48:57;15.00;99.90
72936;DHT22;61085;48.804;9.228;2023-04-23T02:51:23;15.00;99.90
72936;DHT22;61085;48.804;9.228;2023-04-23T02:53:49;14.90;99.90
72936;DHT22;61085;48.804;9.228;2023-04-23T02:56:14;14.80;99.90
72936;DHT22;61085;48.804;9.228;2023-04-23T02:58:40;14.90;99.90
72936;DHT22;61085;48.804;9.228;2023-04-23T03:01:06;14.90;99.90
72936;DHT22;61085;48.804;9.228;2023-04-23T03:03:32;15.10;99.90
72936;DHT22;61085;48.804;9.228;2023-04-23T03:05:59;14.80;99.90
72936;DHT22;61085;48.804;9.228;2023-04-23T03:08:25;14.80;99.90
72936;DHT22;61085;48.804;9.228;2023-04-23T03:10:50;14.80;99.90
72936;DHT22;61085;48.804;9.228;2023-04-23T03:13:16;14.80;99.90
72936;DHT22;61085;48.804;9.228;2023-04-23T03:15:42;14.80;99.90
72936;DHT22;61085;48.804;9.228;2023-04-23T03:18:08;14.80;99.90
72936;DHT22;61085;48.804;9.228;2023-04-23T03:20:34;14.90;99.90
72936;DHT22;61085;48.804;9.228;2023-04-23T03:23:00;14.80;99.90
72936;DHT22;61085;48.804;9.228;2023-04-23T03:25:26;14.90;99.90
72936;DHT22;61085;48.804;9.228;2023-04-23T03:27:52;14.90;99.90
72936;DHT22;61085;48.804;9.228;2023-04-23T03:30:18;14.80;99.90
72936;DHT22;61085;48.804;9.228;2023-04-23T03:32:44;14.70;99.90
72936;DHT22;61085;48.804;9.228;2023-04-23T03:35:10;14.70;99.90
72936;DHT22;61085;48.804;9.228;2023-04-23T03:37:35;14.60;99.90
72936;DHT22;61085;48.804;9.228;2023-04-23T03:40:01;14.60;99.90
72936;DHT22;61085;48.804;9.228;2023-04-23T03:42:33;14.60;99.90
72936;DHT22;61085;48.804;9.228;2023-04-23T03:44:59;14.60;99.90
72936;DHT22;61085;48.804;9.228;2023-04-23T03:47:25;14.50;99.90
72936;DHT22;61085;48.804;9.228;2023-04-23T03:49:51;14.60;99.90
72936;DHT22;61085;48.804;9.228;2023-04-23T03:52:17;14.60;99.90
72936;DHT22;61085;48.804;9.228;2023-04-23T03:54:43;14.60;99.90
72936;DHT22;61085;48.804;9.228;2023-04-23T03:57:08;14.50;99.90
72936;DHT22;61085;48.804;9.228;2023-04-23T03:59:35;14.50;99.90
72936;DHT22;61085;48.804;9.228;2023-04-23T04:02:01;14.50;99.90
72936;DHT22;61085;48.804;9.228;2023-04-23T04:04:29;14.50;99.90
72936;DHT22;61085;48.804;9.228;2023-04-23T04:06:55;14.50;99.90
72936;DHT22;61085;48.804;9.228;2023-04-23T04:09:21;14.50;99.90
72936;DHT22;61085;48.804;9.228;2023-04-23T04:11:47;14.40;99.90
72936;DHT22;61085;48.804;9.228;2023-04-23T04:14:12;14.40;99.90
72936;DHT22;61085;48.804;9.228;2023-04-23T04:16:38;14.50;99.90
72936;DHT22;61085;48.804;9.228;2023-04-23T04:19:05;14.40;99.90
72936;DHT22;61085;48.804;9.228;2023-04-23T04:21:31;14.40;99.90
72936;DHT22;61085;48.804;9.228;2023-04-23T04:23:58;14.40;99.90
72936;DHT22;61085;48.804;9.228;2023-04-23T04:26:26;14.40;99.90
72936;DHT22;61085;48.804;9.228;2023-04-23T04:28:52;14.40;99.90
72936;DHT22;61085;48.804;9.228;2023-04-23T04:31:17;14.40;99.90
72936;DHT22;61085;48.804;9.228;2023-04-23T04:33:46;14.30;99.90
72936;DHT22;61085;48.804;9.228;2023-04-23T04:36:12;14.30;99.90
72936;DHT22;61085;48.804;9.228;2023-04-23T04:38:38;14.30;99.90
72936;DHT22;61085;48.804;9.228;2023-04-23T04:41:07;14.30;99.90
72936;DHT22;61085;48.804;9.228;2023-04-23T04:43:32;14.30;99.90
72936;DHT22;61085;48.804;9.228;2023-04-23T04:45:59;14.30;99.90
72936;DHT22;61085;48.804;9.228;2023-04-23T04:48:24;14.40;99.90
72936;DHT22;61085;48.804;9.228;2023-04-23T04:50:50;14.30;99.90
72936;DHT22;61085;48.804;9.228;2023-04-23T04:53:16;14.20;99.90
72936;DHT22;61085;48.804;9.228;2023-04-23T04:55:42;14.20;99.90
72936;DHT22;61085;48.804;9.228;2023-04-23T04:58:07;14.20;99.90
72936;DHT22;61085;48.804;9.228;2023-04-23T05:00:33;14.20;99.90
72936;DHT22;61085;48.804;9.228;2023-04-23T05:02:59;14.30;99.90
72936;DHT22;61085;48.804;9.228;2023-04-23T05:05:26;14.20;99.90
72936;DHT22;61085;48.804;9.228;2023-04-23T05:07:52;14.20;99.90
72936;DHT22;61085;48.804;9.228;2023-04-23T05:10:19;14.20;99.90
72936;DHT22;61085;48.804;9.228;2023-04-23T05:12:45;14.20;99.90
72936;DHT22;61085;48.804;9.228;2023-04-23T05:15:12;14.30;99.90
72936;DHT22;61085;48.804;9.228;2023-04-23T05:17:41;14.30;99.90
72936;DHT22;61085;48.804;9.228;2023-04-23T05:20:08;14.30;99.90
72936;DHT22;61085;48.804;9.228;2023-04-23T05:22:39;14.20;99.90
72936;DHT22;61085;48.804;9.228;2023-04-23T05:25:06;14.10;99.90
72936;DHT22;61085;48.804;9.228;2023-04-23T05:27:33;14.10;99.90
72936;DHT22;61085;48.804;9.228;2023-04-23T05:30:03;14.20;99.90
72936;DHT22;61085;48.804;9.228;2023-04-23T05:32:30;14.30;99.90
72936;DHT22;61085;48.804;9.228;2023-04-23T05:34:56;14.70;99.90
72936;DHT22;61085;48.804;9.228;2023-04-23T05:37:21;15.10;99.90
72936;DHT22;61085;48.804;9.228;2023-04-23T05:39:47;15.10;99.90
72936;DHT22;61085;48.804;9.228;2023-04-23T05:42:13;15.20;99.90
72936;DHT22;61085;48.804;9.228;2023-04-23T05:44:38;15.10;99.90
72936;DHT22;61085;48.804;9.228;2023-04-23T05:47:06;15.00;99.90
72936;DHT22;61085;48.804;9.228;2023-04-23T05:49:33;15.00;99.90
72936;DHT22;61085;48.804;9.228;2023-04-23T05:51:59;15.10;99.90
72936;DHT22;61085;48.804;9.228;2023-04-23T05:54:27;15.00;99.90
72936;DHT22;61085;48.804;9.228;2023-04-23T05:56:53;15.10;99.90
72936;DHT22;61085;48.804;9.228;2023-04-23T05:59:18;15.10;99.90
72936;DHT22;61085;48.804;9.228;2023-04-23T06:01:44;15.40;99.90
72936;DHT22;61085;48.804;9.228;2023-04-23T06:04:10;15.50;99.90
72936;DHT22;61085;48.804;9.228;2023-04-23T06:06:36;15.60;99.90
72936;DHT22;61085;48.804;9.228;2023-04-23T06:09:01;15.80;99.90
72936;DHT22;61085;48.804;9.228;2023-04-23T06:11:27;15.40;99.90
72936;DHT22;61085;48.804;9.228;2023-04-23T06:13:53;15.50;99.90
72936;DHT22;61085;48.804;9.228;2023-04-23T06:16:18;15.60;99.90
72936;DHT22;61085;48.804;9.228;2023-04-23T06:18:44;15.80;99.90
72936;DHT22;61085;48.804;9.228;2023-04-23T06:21:10;15.90;99.90
72936;DHT22;61085;48.804;9.228;2023-04-23T06:23:36;15.80;99.90
72936;DHT22;61085;48.804;9.228;2023-04-23T06:26:01;15.80;99.90
72936;DHT22;61085;48.804;9.228;2023-04-23T06:28:28;15.90;99.90
72936;DHT22;61085;48.804;9.228;2023-04-23T06:30:54;15.90;99.90
72936;DHT22;61085;48.804;9.228;2023-04-23T06:33:19;16.00;99.90
72936;DHT22;61085;48.804;9.228;2023-04-23T06:35:45;16.10;99.90
72936;DHT22;61085;48.804;9.228;2023-04-23T06:38:11;16.20;99.90
72936;DHT22;61085;48.804;9.228;2023-04-23T06:40:37;16.40;99.90
72936;DHT22;61085;48.804;9.228;2023-04-23T06:43:02;16.60;99.90
72936;DHT22;61085;48.804;9.228;2023-04-23T06:45:32;16.40;99.90
72936;DHT22;61085;48.804;9.228;2023-04-23T06:47:58;16.50;99.90
72936;DHT22;61085;48.804;9.228;2023-04-23T06:50:24;16.40;99.90
72936;DHT22;61085;48.804;9.228;2023-04-23T06:52:49;16.40;99.90
72936;DHT22;61085;48.804;9.228;2023-04-23T06:55:15;16.50;99.90
72936;DHT22;61085;48.804;9.228;2023-04-23T06:57:41;16.90;99.90
72936;DHT22;61085;48.804;9.228;2023-04-23T07:00:07;17.10;99.90
72936;DHT22;61085;48.804;9.228;2023-04-23T07:02:36;17.30;99.90
72936;DHT22;61085;48.804;9.228;2023-04-23T07:05:02;18.00;99.90
72936;DHT22;61085;48.804;9.228;2023-04-23T07:07:28;18.80;99.90
72936;DHT22;61085;48.804;9.228;2023-04-23T07:09:53;19.10;98.40
72936;DHT22;61085;48.804;9.228;2023-04-23T07:12:19;19.80;96.60
72936;DHT22;61085;48.804;9.228;2023-04-23T07:14:44;19.90;94.10
72936;DHT22;61085;48.804;9.228;2023-04-23T07:17:10;19.90;92.90
72936;DHT22;61085;48.804;9.228;2023-04-23T07:19:36;19.80;92.40
72936;DHT22;61085;48.804;9.228;2023-04-23T07:22:02;19.60;92.90
72936;DHT22;61085;48.804;9.228;2023-04-23T07:24:28;19.60;91.40
72936;DHT22;61085;48.804;9.228;2023-04-23T07:26:53;18.90;93.40
72936;DHT22;61085;48.804;9.228;2023-04-23T07:29:19;18.80;94.40
72936;DHT22;61085;48.804;9.228;2023-04-23T07:31:45;18.30;93.90
72936;DHT22;61085;48.804;9.228;2023-04-23T07:34:14;18.20;95.40
72936;DHT22;61085;48.804;9.228;2023-04-23T07:36:40;18.00;96.40
72936;DHT22;61085;48.804;9.228;2023-04-23T07:39:05;18.30;95.50
72936;DHT22;61085;48.804;9.228;2023-04-23T07:41:32;18.50;95.20
72936;DHT22;61085;48.804;9.228;2023-04-23T07:43:57;18.30;93.80
72936;DHT22;61085;48.804;9.228;2023-04-23T07:46:23;18.50;93.40
72936;DHT22;61085;48.804;9.228;2023-04-23T07:48:49;18.30;92.80
72936;DHT22;61085;48.804;9.228;2023-04-23T07:51:14;18.30;94.10
72936;DHT22;61085;48.804;9.228;2023-04-23T07:53:40;18.20;95.10
72936;DHT22;61085;48.804;9.228;2023-04-23T07:56:06;18.00;94.60
72936;DHT22;61085;48.804;9.228;2023-04-23T07:58:32;17.80;95.70
72936;DHT22;61085;48.804;9.228;2023-04-23T08:00:57;17.90;96.40
72936;DHT22;61085;48.804;9.228;2023-04-23T08:03:23;17.90;96.80
72936;DHT22;61085;48.804;9.228;2023-04-23T08:05:48;18.10;96.60
72936;DHT22;61085;48.804;9.228;2023-04-23T08:08:14;18.60;95.60
72936;DHT22;61085;48.804;9.228;2023-04-23T08:10:40;18.30;95.20
72936;DHT22;61085;48.804;9.228;2023-04-23T08:13:06;18.20;91.80
72936;DHT22;61085;48.804;9.228;2023-04-23T08:15:32;17.80;92.70
72936;DHT22;61085;48.804;9.228;2023-04-23T08:17:57;18.00;93.70
72936;DHT22;61085;48.804;9.228;2023-04-23T08:20:23;17.90;94.20
72936;DHT22;61085;48.804;9.228;2023-04-23T08:22:50;17.80;94.30
72936;DHT22;61085;48.804;9.228;2023-04-23T08:25:17;17.70;94.20
72936;DHT22;61085;48.804;9.228;2023-04-23T08:27:43;17.50;94.00
72936;DHT22;61085;48.804;9.228;2023-04-23T08:30:08;17.20;94.20
72936;DHT22;61085;48.804;9.228;2023-04-23T08:32:34;17.20;93.90
72936;DHT22;61085;48.804;9.228;2023-04-23T08:35:00;17.00;94.80
72936;DHT22;61085;48.804;9.228;2023-04-23T08:37:25;17.00;94.10
72936;DHT22;61085;48.804;9.228;2023-04-23T08:39:51;17.20;94.40
72936;DHT22;61085;48.804;9.228;2023-04-23T08:42:23;17.30;94.20
72936;DHT22;61085;48.804;9.228;2023-04-23T08:44:51;17.20;93.50
72936;DHT22;61085;48.804;9.228;2023-04-23T08:47:18;17.00;94.20
72936;DHT22;61085;48.804;9.228;2023-04-23T08:49:45;16.90;95.30
72936;DHT22;61085;48.804;9.228;2023-04-23T08:52:15;17.10;95.70
72936;DHT22;61085;48.804;9.228;2023-04-23T08:54:49;17.50;95.00
72936;DHT22;61085;48.804;9.228;2023-04-23T08:57:17;17.60;93.60
72936;DHT22;61085;48.804;9.228;2023-04-23T08:59:44;17.60;93.40
72936;DHT22;61085;48.804;9.228;2023-04-23T09:02:10;17.60;94.30
72936;DHT22;61085;48.804;9.228;2023-04-23T09:04:37;18.10;93.40
72936;DHT22;61085;48.804;9.228;2023-04-23T09:07:03;17.90;92.70
72936;DHT22;61085;48.804;9.228;2023-04-23T09:09:29;18.00;91.80
72936;DHT22;61085;48.804;9.228;2023-04-23T09:11:56;18.20;91.40
72936;DHT22;61085;48.804;9.228;2023-04-23T09:14:25;18.10;90.80
72936;DHT22;61085;48.804;9.228;2023-04-23T09:16:52;18.20;90.50
72936;DHT22;61085;48.804;9.228;2023-04-23T09:19:18;18.50;90.00
72936;DHT22;61085;48.804;9.228;2023-04-23T09:21:44;18.50;90.50
72936;DHT22;61085;48.804;9.228;2023-04-23T09:24:11;18.90;90.00
72936;DHT22;61085;48.804;9.228;2023-04-23T09:26:51;19.00;87.50
72936;DHT22;61085;48.804;9.228;2023-04-23T09:29:18;18.80;84.50
72936;DHT22;61085;48.804;9.228;2023-04-23T09:31:45;18.80;84.30
72936;DHT22;61085;48.804;9.228;2023-04-23T09:34:18;18.80;83.70
72936;DHT22;61085;48.804;9.228;2023-04-23T09:36:45;18.80;81.30
72936;DHT22;61085;48.804;9.228;2023-04-23T09:39:13;18.60;81.20
72936;DHT22;61085;48.804;9.228;2023-04-23T09:41:39;18.60;81.10
72936;DHT22;61085;48.804;9.228;2023-04-23T09:44:05;18.90;81.50
72936;DHT22;61085;48.804;9.228;2023-04-23T09:46:33;19.50;81.60
72936;DHT22;61085;48.804;9.228;2023-04-23T09:49:04;20.00;79.10
72936;DHT22;61085;48.804;9.228;2023-04-23T09:51:34;20.10;74.70
72936;DHT22;61085;48.804;9.228;2023-04-23T09:54:01;20.20;71.80
72936;DHT22;61085;48.804;9.228;2023-04-23T09:56:29;20.10;72.70
72936;DHT22;61085;48.804;9.228;2023-04-23T09:58:55;20.10;69.70
72936;DHT22;61085;48.804;9.228;2023-04-23T10:01:28;20.10;67.30
72936;DHT22;61085;48.804;9.228;2023-04-23T10:03:54;20.30;68.20
72936;DHT22;61085;48.804;9.228;2023-04-23T10:06:27;20.20;65.50
72936;DHT22;61085;48.804;9.228;2023-04-23T10:08:56;20.40;64.10
72936;DHT22;61085;48.804;9.228;2023-04-23T10:11:23;20.60;65.30
72936;DHT22;61085;48.804;9.228;2023-04-23T10:13:50;20.40;64.30
72936;DHT22;61085;48.804;9.228;2023-04-23T10:16:16;20.30;67.20
72936;DHT22;61085;48.804;9.228;2023-04-23T10:18:43;20.30;64.80
72936;DHT22;61085;48.804;9.228;2023-04-23T10:21:09;19.90;66.80
72936;DHT22;61085;48.804;9.228;2023-04-23T10:23:37;19.90;71.10
72936;DHT22;61085;48.804;9.228;2023-04-23T10:26:05;19.60;68.30
72936;DHT22;61085;48.804;9.228;2023-04-23T10:28:32;19.70;68.90
72936;DHT22;61085;48.804;9.228;2023-04-23T10:30:58;19.80;68.90
72936;DHT22;61085;48.804;9.228;2023-04-23T10:33:25;20.10;64.60
72936;DHT22;61085;48.804;9.228;2023-04-23T10:35:55;20.30;60.00
72936;DHT22;61085;48.804;9.228;2023-04-23T10:38:21;19.90;59.00
72936;DHT22;61085;48.804;9.228;2023-04-23T10:40:50;20.10;63.70
72936;DHT22;61085;48.804;9.228;2023-04-23T10:43:18;20.20;64.60
72936;DHT22;61085;48.804;9.228;2023-04-23T10:45:43;20.40;62.90
72936;DHT22;61085;48.804;9.228;2023-04-23T10:48:09;19.90;65.10
72936;DHT22;61085;48.804;9.228;2023-04-23T10:50:35;19.80;66.90
72936;DHT22;61085;48.804;9.228;2023-04-23T10:53:02;19.80;64.20
72936;DHT22;61085;48.804;9.228;2023-04-23T10:55:29;19.60;64.60
72936;DHT22;61085;48.804;9.228;2023-04-23T11:00:29;19.10;65.40
72936;DHT22;61085;48.804;9.228;2023-04-23T11:02:55;18.90;66.10
72936;DHT22;61085;48.804;9.228;2023-04-23T11:05:21;19.00;65.70
72936;DHT22;61085;48.804;9.228;2023-04-23T11:08:03;19.10;66.60
72936;DHT22;61085;48.804;9.228;2023-04-23T11:10:30;19.40;65.20
72936;DHT22;61085;48.804;9.228;2023-04-23T11:12:57;19.50;64.50
72936;DHT22;61085;48.804;9.228;2023-04-23T11:15:22;19.40;63.30
72936;DHT22;61085;48.804;9.228;2023-04-23T11:20:21;19.50;63.10
72936;DHT22;61085;48.804;9.228;2023-04-23T11:22:50;19.40;63.00
72936;DHT22;61085;48.804;9.228;2023-04-23T11:25:21;19.40;60.40
72936;DHT22;61085;48.804;9.228;2023-04-23T11:27:47;19.30;60.10
72936;DHT22;61085;48.804;9.228;2023-04-23T11:30:17;19.70;63.60
72936;DHT22;61085;48.804;9.228;2023-04-23T11:32:48;20.40;62.30
72936;DHT22;61085;48.804;9.228;2023-04-23T11:35:16;20.90;59.60
72936;DHT22;61085;48.804;9.228;2023-04-23T11:37:43;21.20;60.00
72936;DHT22;61085;48.804;9.228;2023-04-23T11:40:11;21.30;57.70
72936;DHT22;61085;48.804;9.228;2023-04-23T11:42:42;21.50;57.00
72936;DHT22;61085;48.804;9.228;2023-04-23T11:47:48;21.50;55.60
72936;DHT22;61085;48.804;9.228;2023-04-23T11:50:28;21.60;55.30
72936;DHT22;61085;48.804;9.228;2023-04-23T11:52:55;21.60;53.60
72936;DHT22;61085;48.804;9.228;2023-04-23T11:55:22;21.60;53.60
72936;DHT22;61085;48.804;9.228;2023-04-23T11:57:51;21.70;51.60
72936;DHT22;61085;48.804;9.228;2023-04-23T12:00:25;21.50;51.70
72936;DHT22;61085;48.804;9.228;2023-04-23T12:05:22;20.90;53.40
72936;DHT22;61085;48.804;9.228;2023-04-23T12:07:51;21.00;53.70
72936;DHT22;61085;48.804;9.228;2023-04-23T12:10:21;21.10;53.50
72936;DHT22;61085;48.804;9.228;2023-04-23T12:12:51;21.30;53.50
72936;DHT22;61085;48.804;9.228;2023-04-23T12:15:17;21.40;51.40
72936;DHT22;61085;48.804;9.228;2023-04-23T12:17:47;21.40;51.40
72936;DHT22;61085;48.804;9.228;2023-04-23T12:20:18;21.30;51.40
72936;DHT22;61085;48.804;9.228;2023-04-23T12:22:44;21.10;52.90
72936;DHT22;61085;48.804;9.228;2023-04-23T12:25:10;20.80;53.20
72936;DHT22;61085;48.804;9.228;2023-04-23T12:27:43;21.00;53.80
72936;DHT22;61085;48.804;9.228;2023-04-23T12:30:10;21.10;53.40
72936;DHT22;61085;48.804;9.228;2023-04-23T12:32:36;21.00;52.90
72936;DHT22;61085;48.804;9.228;2023-04-23T12:35:02;21.10;53.60
72936;DHT22;61085;48.804;9.228;2023-04-23T12:37:35;21.10;53.30
72936;DHT22;61085;48.804;9.228;2023-04-23T12:40:02;21.00;53.30
72936;DHT22;61085;48.804;9.228;2023-04-23T12:42:31;21.10;53.50
72936;DHT22;61085;48.804;9.228;2023-04-23T12:45:05;21.30;53.00
72936;DHT22;61085;48.804;9.228;2023-04-23T12:47:31;21.30;52.00
72936;DHT22;61085;48.804;9.228;2023-04-23T12:49:57;21.30;51.70
72936;DHT22;61085;48.804;9.228;2023-04-23T12:52:25;21.20;52.40
72936;DHT22;61085;48.804;9.228;2023-04-23T12:54:51;21.00;52.30
72936;DHT22;61085;48.804;9.228;2023-04-23T12:57:20;21.00;51.90
72936;DHT22;61085;48.804;9.228;2023-04-23T12:59:47;21.20;52.00
72936;DHT22;61085;48.804;9.228;2023-04-23T13:02:13;21.30;51.30
72936;DHT22;61085;48.804;9.228;2023-04-23T13:04:39;21.10;50.50
72936;DHT22;61085;48.804;9.228;2023-04-23T13:07:04;21.30;52.10
72936;DHT22;61085;48.804;9.228;2023-04-23T13:09:30;21.60;52.10
72936;DHT22;61085;48.804;9.228;2023-04-23T13:11:56;21.80;51.70
72936;DHT22;61085;48.804;9.228;2023-04-23T13:14:22;21.50;50.80
72936;DHT22;61085;48.804;9.228;2023-04-23T13:16:48;21.40;51.00
72936;DHT22;61085;48.804;9.228;2023-04-23T13:19:13;21.30;51.40
72936;DHT22;61085;48.804;9.228;2023-04-23T13:21:41;21.00;52.60
72936;DHT22;61085;48.804;9.228;2023-04-23T13:24:06;21.00;52.70
72936;DHT22;61085;48.804;9.228;2023-04-23T13:26:32;20.90;52.50
72936;DHT22;61085;48.804;9.228;2023-04-23T13:28:59;21.10;52.70
72936;DHT22;61085;48.804;9.228;2023-04-23T13:31:25;21.00;53.90
72936;DHT22;61085;48.804;9.228;2023-04-23T13:33:51;21.00;52.90
72936;DHT22;61085;48.804;9.228;2023-04-23T13:36:18;21.20;54.00
72936;DHT22;61085;48.804;9.228;2023-04-23T13:38:44;21.40;52.00
72936;DHT22;61085;48.804;9.228;2023-04-23T13:41:10;21.40;51.50
72936;DHT22;61085;48.804;9.228;2023-04-23T13:43:35;21.60;51.50
72936;DHT22;61085;48.804;9.228;2023-04-23T13:46:01;21.80;51.10
72936;DHT22;61085;48.804;9.228;2023-04-23T13:48:26;22.00;48.30
72936;DHT22;61085;48.804;9.228;2023-04-23T13:50:56;21.80;48.20
72936;DHT22;61085;48.804;9.228;2023-04-23T13:53:21;21.90;47.40
72936;DHT22;61085;48.804;9.228;2023-04-23T13:55:47;22.00;45.50
72936;DHT22;61085;48.804;9.228;2023-04-23T13:58:13;22.10;46.40
72936;DHT22;61085;48.804;9.228;2023-04-23T14:00:38;22.30;47.10
72936;DHT22;61085;48.804;9.228;2023-04-23T14:03:04;22.30;47.00
72936;DHT22;61085;48.804;9.228;2023-04-23T14:05:30;22.40;45.50
72936;DHT22;61085;48.804;9.228;2023-04-23T14:07:55;22.20;44.00
72936;DHT22;61085;48.804;9.228;2023-04-23T14:10:21;22.30;44.80
72936;DHT22;61085;48.804;9.228;2023-04-23T14:12:47;22.40;43.90
72936;DHT22;61085;48.804;9.228;2023-04-23T14:15:13;22.70;43.60
72936;DHT22;61085;48.804;9.228;2023-04-23T14:17:39;22.80;43.60
72936;DHT22;61085;48.804;9.228;2023-04-23T14:20:07;22.90;43.40
72936;DHT22;61085;48.804;9.228;2023-04-23T14:22:33;22.80;43.20
72936;DHT22;61085;48.804;9.228;2023-04-23T14:25:07;22.60;42.40
72936;DHT22;61085;48.804;9.228;2023-04-23T14:27:40;22.60;43.00
72936;DHT22;61085;48.804;9.228;2023-04-23T14:30:17;22.70;43.20
72936;DHT22;61085;48.804;9.228;2023-04-23T14:32:43;22.60;41.60
72936;DHT22;61085;48.804;9.228;2023-04-23T14:35:12;22.50;40.50
72936;DHT22;61085;48.804;9.228;2023-04-23T14:37:38;22.70;40.80
72936;DHT22;61085;48.804;9.228;2023-04-23T14:40:08;22.80;40.50
72936;DHT22;61085;48.804;9.228;2023-04-23T14:42:33;22.80;40.30
72936;DHT22;61085;48.804;9.228;2023-04-23T14:45:01;22.90;39.70
72936;DHT22;61085;48.804;9.228;2023-04-23T14:47:26;22.80;40.10
72936;DHT22;61085;48.804;9.228;2023-04-23T14:49:52;22.90;39.20
72936;DHT22;61085;48.804;9.228;2023-04-23T14:52:18;22.70;39.80
72936;DHT22;61085;48.804;9.228;2023-04-23T14:54:44;22.60;40.10
72936;DHT22;61085;48.804;9.228;2023-04-23T14:57:09;22.40;40.00
72936;DHT22;61085;48.804;9.228;2023-04-23T14:59:35;22.20;39.40
72936;DHT22;61085;48.804;9.228;2023-04-23T15:02:01;22.20;40.10
72936;DHT22;61085;48.804;9.228;2023-04-23T15:04:26;22.50;40.90
72936;DHT22;61085;48.804;9.228;2023-04-23T15:06:52;22.10;40.90
72936;DHT22;61085;48.804;9.228;2023-04-23T15:09:18;22.00;41.50
72936;DHT22;61085;48.804;9.228;2023-04-23T15:11:43;22.00;41.60
72936;DHT22;61085;48.804;9.228;2023-04-23T15:14:25;21.90;41.60
72936;DHT22;61085;48.804;9.228;2023-04-23T15:16:54;21.80;42.30
72936;DHT22;61085;48.804;9.228;2023-04-23T15:19:20;21.70;41.90
72936;DHT22;61085;48.804;9.228;2023-04-23T15:21:46;21.70;42.70
72936;DHT22;61085;48.804;9.228;2023-04-23T15:24:12;21.60;43.90
72936;DHT22;61085;48.804;9.228;2023-04-23T15:26:38;21.60;43.50
72936;DHT22;61085;48.804;9.228;2023-04-23T15:29:04;21.60;43.70
72936;DHT22;61085;48.804;9.228;2023-04-23T15:31:33;21.50;44.40
72936;DHT22;61085;48.804;9.228;2023-04-23T15:33:59;21.50;46.10
72936;DHT22;61085;48.804;9.228;2023-04-23T15:36:24;21.40;46.90